sensor_id;sensor_type;location;lat;lon;timestamp;temperature;humidity
66670;DHT22;53568;52.164;4.472;2023-07-29T00:01:34;20.86;71.78
66670;DHT22;53568;52.164;4.472;2023-07-29T00:03:59;20.87;71.78
66670;DHT22;53568;52.164;4.472;2023-07-29T00:06:25;20.77;71.55
66670;DHT22;53568;52.164;4.472;2023-07-29T00:08:50;20.80;71.51
66670;DHT22;53568;52.164;4.472;2023-07-29T00:11:16;20.80;71.51
66670;DHT22;53568;52.164;4.472;2023-07-29T00:13:41;20.87;71.11
66670;DHT22;53568;52.164;4.472;2023-07-29T00:16:07;20.83;70.91
66670;DHT22;53568;52.164;4.472;2023-07-29T00:18:32;20.82;71.17
66670;DHT22;53568;52.164;4.472;2023-07-29T00:20:58;20.85;71.15
66670;DHT22;53568;52.164;4.472;2023-07-29T00:23:24;20.90;70.65
66670;DHT22;53568;52.164;4.472;2023-07-29T00:25:49;20.93;70.49
66670;DHT22;53568;52.164;4.472;2023-07-29T00:28:15;20.93;70.35
66670;DHT22;53568;52.164;4.472;2023-07-29T00:30:41;20.96;70.21
66670;DHT22;53568;52.164;4.472;2023-07-29T00:33:06;20.93;70.01
66670;DHT22;53568;52.164;4.472;2023-07-29T00:35:32;20.89;70.04
66670;DHT22;53568;52.164;4.472;2023-07-29T00:37:57;20.92;69.70
66670;DHT22;53568;52.164;4.472;2023-07-29T00:40:23;20.89;69.85
66670;DHT22;53568;52.164;4.472;2023-07-29T00:42:49;20.86;69.77
66670;DHT22;53568;52.164;4.472;2023-07-29T00:45:16;20.86;69.42
66670;DHT22;53568;52.164;4.472;2023-07-29T00:47:42;20.83;69.56
66670;DHT22;53568;52.164;4.472;2023-07-29T00:50:13;20.83;69.49
66670;DHT22;53568;52.164;4.472;2023-07-29T00:52:40;20.76;69.83
66670;DHT22;53568;52.164;4.472;2023-07-29T00:55:06;20.75;69.99
66670;DHT22;53568;52.164;4.472;2023-07-29T00:57:32;20.77;69.79
66670;DHT22;53568;52.164;4.472;2023-07-29T00:59:59;20.77;69.96
66670;DHT22;53568;52.164;4.472;2023-07-29T01:02:26;20.77;69.76
66670;DHT22;53568;52.164;4.472;2023-07-29T01:04:57;20.77;69.64
66670;DHT22;53568;52.164;4.472;2023-07-29T01:10:37;20.71;69.53
66670;DHT22;53568;52.164;4.472;2023-07-29T01:15:58;20.69;69.54
66670;DHT22;53568;52.164;4.472;2023-07-29T01:18:30;20.63;69.58
66670;DHT22;53568;52.164;4.472;2023-07-29T01:20:59;20.63;69.81
66670;DHT22;53568;52.164;4.472;2023-07-29T01:23:31;20.66;69.84
66670;DHT22;53568;52.164;4.472;2023-07-29T01:25:57;20.69;69.58
66670;DHT22;53568;52.164;4.472;2023-07-29T01:28:24;20.69;69.70
66670;DHT22;53568;52.164;4.472;2023-07-29T01:31:01;20.71;69.50
66670;DHT22;53568;52.164;4.472;2023-07-29T01:33:35;20.63;69.42
66670;DHT22;53568;52.164;4.472;2023-07-29T01:36:13;20.59;69.62
66670;DHT22;53568;52.164;4.472;2023-07-29T01:38:42;20.61;69.77
66670;DHT22;53568;52.164;4.472;2023-07-29T01:41:09;20.62;69.71
66670;DHT22;53568;52.164;4.472;2023-07-29T01:43:37;20.65;69.64
66670;DHT22;53568;52.164;4.472;2023-07-29T01:46:13;20.63;69.62
66670;DHT22;53568;52.164;4.472;2023-07-29T01:48:38;20.62;69.70
66670;DHT22;53568;52.164;4.472;2023-07-29T01:51:05;20.56;69.88
66670;DHT22;53568;52.164;4.472;2023-07-29T01:53:31;20.56;70.03
66670;DHT22;53568;52.164;4.472;2023-07-29T01:55:57;20.55;69.88
66670;DHT22;53568;52.164;4.472;2023-07-29T01:58:23;20.45;70.25
66670;DHT22;53568;52.164;4.472;2023-07-29T02:00:48;20.51;70.38
66670;DHT22;53568;52.164;4.472;2023-07-29T02:03:14;20.48;70.37
66670;DHT22;53568;52.164;4.472;2023-07-29T02:05:40;20.46;70.68
66670;DHT22;53568;52.164;4.472;2023-07-29T02:08:05;20.43;70.81
66670;DHT22;53568;52.164;4.472;2023-07-29T02:10:31;20.45;70.97
66670;DHT22;53568;52.164;4.472;2023-07-29T02:12:56;20.52;70.77
66670;DHT22;53568;52.164;4.472;2023-07-29T02:15:22;20.45;70.93
66670;DHT22;53568;52.164;4.472;2023-07-29T02:17:50;20.45;71.16
66670;DHT22;53568;52.164;4.472;2023-07-29T02:20:15;20.49;71.09
66670;DHT22;53568;52.164;4.472;2023-07-29T02:22:41;20.51;71.01
66670;DHT22;53568;52.164;4.472;2023-07-29T02:25:07;20.49;71.07
66670;DHT22;53568;52.164;4.472;2023-07-29T02:27:32;20.53;70.90
66670;DHT22;53568;52.164;4.472;2023-07-29T02:29:58;20.53;70.93
66670;DHT22;53568;52.164;4.472;2023-07-29T02:32:24;20.52;71.12
66670;DHT22;53568;52.164;4.472;2023-07-29T02:34:49;20.49;71.28
66670;DHT22;53568;52.164;4.472;2023-07-29T02:37:15;20.49;71.41
66670;DHT22;53568;52.164;4.472;2023-07-29T02:39:40;20.51;71.38
66670;DHT22;53568;52.164;4.472;2023-07-29T02:42:06;20.51;71.41
66670;DHT22;53568;52.164;4.472;2023-07-29T02:44:31;20.51;71.50
66670;DHT22;53568;52.164;4.472;2023-07-29T02:46:57;20.46;71.66
66670;DHT22;53568;52.164;4.472;2023-07-29T02:49:23;20.43;71.79
66670;DHT22;53568;52.164;4.472;2023-07-29T02:51:49;20.42;71.90
66670;DHT22;53568;52.164;4.472;2023-07-29T02:54:14;20.43;71.99
66670;DHT22;53568;52.164;4.472;2023-07-29T02:56:40;20.45;71.96
66670;DHT22;53568;52.164;4.472;2023-07-29T02:59:05;20.45;71.92
66670;DHT22;53568;52.164;4.472;2023-07-29T03:01:31;20.45;72.02
66670;DHT22;53568;52.164;4.472;2023-07-29T03:03:57;20.41;72.18
66670;DHT22;53568;52.164;4.472;2023-07-29T03:06:22;20.42;72.36
66670;DHT22;53568;52.164;4.472;2023-07-29T03:08:48;20.46;72.32
66670;DHT22;53568;52.164;4.472;2023-07-29T03:11:15;20.45;72.35
66670;DHT22;53568;52.164;4.472;2023-07-29T03:13:42;20.45;72.41
66670;DHT22;53568;52.164;4.472;2023-07-29T03:16:17;20.43;72.35
66670;DHT22;53568;52.164;4.472;2023-07-29T03:18:44;20.41;72.48
66670;DHT22;53568;52.164;4.472;2023-07-29T03:21:11;20.32;72.74
66670;DHT22;53568;52.164;4.472;2023-07-29T03:23:37;20.32;73.00
66670;DHT22;53568;52.164;4.472;2023-07-29T03:26:03;20.24;73.31
66670;DHT22;53568;52.164;4.472;2023-07-29T03:28:39;20.18;73.64
66670;DHT22;53568;52.164;4.472;2023-07-29T03:31:05;20.11;74.20
66670;DHT22;53568;52.164;4.472;2023-07-29T03:33:31;20.08;74.38
66670;DHT22;53568;52.164;4.472;2023-07-29T03:35:56;20.11;74.18
66670;DHT22;53568;52.164;4.472;2023-07-29T03:38:22;20.12;74.10
66670;DHT22;53568;52.164;4.472;2023-07-29T03:40:48;20.05;74.48
66670;DHT22;53568;52.164;4.472;2023-07-29T03:43:14;20.07;74.48
66670;DHT22;53568;52.164;4.472;2023-07-29T03:45:40;19.99;74.79
66670;DHT22;53568;52.164;4.472;2023-07-29T03:48:07;19.94;75.07
66670;DHT22;53568;52.164;4.472;2023-07-29T03:50:34;19.97;74.98
66670;DHT22;53568;52.164;4.472;2023-07-29T03:53:01;19.94;75.24
66670;DHT22;53568;52.164;4.472;2023-07-29T03:55:26;19.97;75.44
66670;DHT22;53568;52.164;4.472;2023-07-29T03:57:52;20.01;75.34
66670;DHT22;53568;52.164;4.472;2023-07-29T04:00:17;20.01;75.26
66670;DHT22;53568;52.164;4.472;2023-07-29T04:02:43;19.95;75.55
66670;DHT22;53568;52.164;4.472;2023-07-29T04:05:11;19.99;75.43
66670;DHT22;53568;52.164;4.472;2023-07-29T04:07:37;20.02;75.37
66670;DHT22;53568;52.164;4.472;2023-07-29T04:10:03;20.01;75.55
66670;DHT22;53568;52.164;4.472;2023-07-29T04:12:30;20.05;75.53
66670;DHT22;53568;52.164;4.472;2023-07-29T04:14:56;20.11;75.28
66670;DHT22;53568;52.164;4.472;2023-07-29T04:17:21;20.12;75.39
66670;DHT22;53568;52.164;4.472;2023-07-29T04:19:47;20.17;75.12
66670;DHT22;53568;52.164;4.472;2023-07-29T04:22:13;20.18;75.21
66670;DHT22;53568;52.164;4.472;2023-07-29T04:24:39;20.17;75.19
66670;DHT22;53568;52.164;4.472;2023-07-29T04:27:04;20.21;75.11
66670;DHT22;53568;52.164;4.472;2023-07-29T04:29:30;20.17;75.26
66670;DHT22;53568;52.164;4.472;2023-07-29T04:31:55;20.19;75.19
66670;DHT22;53568;52.164;4.472;2023-07-29T04:34:21;20.21;75.29
66670;DHT22;53568;52.164;4.472;2023-07-29T04:36:47;20.19;75.38
66670;DHT22;53568;52.164;4.472;2023-07-29T04:39:14;20.17;75.54
66670;DHT22;53568;52.164;4.472;2023-07-29T04:41:40;20.19;75.65
66670;DHT22;53568;52.164;4.472;2023-07-29T04:44:06;20.17;75.51
66670;DHT22;53568;52.164;4.472;2023-07-29T04:46:32;20.17;75.75
66670;DHT22;53568;52.164;4.472;2023-07-29T04:48:58;20.15;75.80
66670;DHT22;53568;52.164;4.472;2023-07-29T04:51:24;20.12;76.03
66670;DHT22;53568;52.164;4.472;2023-07-29T04:53:50;20.15;76.11
66670;DHT22;53568;52.164;4.472;2023-07-29T04:56:16;20.15;76.11
66670;DHT22;53568;52.164;4.472;2023-07-29T04:58:41;20.15;76.22
66670;DHT22;53568;52.164;4.472;2023-07-29T05:01:07;20.17;76.28
66670;DHT22;53568;52.164;4.472;2023-07-29T05:03:33;20.21;76.13
66670;DHT22;53568;52.164;4.472;2023-07-29T05:05:59;20.21;76.04
66670;DHT22;53568;52.164;4.472;2023-07-29T05:08:26;20.21;76.03
66670;DHT22;53568;52.164;4.472;2023-07-29T05:10:53;20.25;76.10
66670;DHT22;53568;52.164;4.472;2023-07-29T05:13:19;20.22;76.26
66670;DHT22;53568;52.164;4.472;2023-07-29T05:15:47;20.31;76.00
66670;DHT22;53568;52.164;4.472;2023-07-29T05:18:12;20.35;75.92
66670;DHT22;53568;52.164;4.472;2023-07-29T05:20:38;20.31;76.03
66670;DHT22;53568;52.164;4.472;2023-07-29T05:23:03;20.41;75.90
66670;DHT22;53568;52.164;4.472;2023-07-29T05:25:29;20.39;76.07
66670;DHT22;53568;52.164;4.472;2023-07-29T05:27:54;20.45;75.72
66670;DHT22;53568;52.164;4.472;2023-07-29T05:30:20;20.38;75.94
66670;DHT22;53568;52.164;4.472;2023-07-29T05:32:46;20.36;75.84
66670;DHT22;53568;52.164;4.472;2023-07-29T05:35:11;20.41;75.93
66670;DHT22;53568;52.164;4.472;2023-07-29T05:37:40;20.36;76.01
66670;DHT22;53568;52.164;4.472;2023-07-29T05:40:07;20.48;75.87
66670;DHT22;53568;52.164;4.472;2023-07-29T05:42:33;20.51;75.88
66670;DHT22;53568;52.164;4.472;2023-07-29T05:44:59;20.55;75.93
66670;DHT22;53568;52.164;4.472;2023-07-29T05:47:25;20.51;76.16
66670;DHT22;53568;52.164;4.472;2023-07-29T05:49:50;20.49;75.68
66670;DHT22;53568;52.164;4.472;2023-07-29T05:52:16;20.49;75.60
66670;DHT22;53568;52.164;4.472;2023-07-29T05:54:41;20.48;75.70
66670;DHT22;53568;52.164;4.472;2023-07-29T05:57:11;20.42;75.78
66670;DHT22;53568;52.164;4.472;2023-07-29T05:59:37;20.43;75.53
66670;DHT22;53568;52.164;4.472;2023-07-29T06:02:03;20.35;76.11
66670;DHT22;53568;52.164;4.472;2023-07-29T06:04:29;20.32;76.32
66670;DHT22;53568;52.164;4.472;2023-07-29T06:06:54;20.28;76.32
66670;DHT22;53568;52.164;4.472;2023-07-29T06:09:25;20.36;76.39
66670;DHT22;53568;52.164;4.472;2023-07-29T06:11:51;20.43;76.19
66670;DHT22;53568;52.164;4.472;2023-07-29T06:14:17;20.48;76.01
66670;DHT22;53568;52.164;4.472;2023-07-29T06:16:42;20.49;75.83
66670;DHT22;53568;52.164;4.472;2023-07-29T06:19:08;20.49;75.64
66670;DHT22;53568;52.164;4.472;2023-07-29T06:21:35;20.51;75.68
66670;DHT22;53568;52.164;4.472;2023-07-29T06:24:01;20.49;75.62
66670;DHT22;53568;52.164;4.472;2023-07-29T06:26:27;20.49;75.65
66670;DHT22;53568;52.164;4.472;2023-07-29T06:28:52;20.53;75.59
66670;DHT22;53568;52.164;4.472;2023-07-29T06:31:18;20.55;75.67
66670;DHT22;53568;52.164;4.472;2023-07-29T06:33:43;20.53;75.68
66670;DHT22;53568;52.164;4.472;2023-07-29T06:36:09;20.56;75.89
66670;DHT22;53568;52.164;4.472;2023-07-29T06:38:34;20.62;75.89
66670;DHT22;53568;52.164;4.472;2023-07-29T06:41:00;20.65;75.89
66670;DHT22;53568;52.164;4.472;2023-07-29T06:43:25;20.61;76.16
66670;DHT22;53568;52.164;4.472;2023-07-29T06:45:51;20.62;76.19
66670;DHT22;53568;52.164;4.472;2023-07-29T06:48:17;20.61;76.47
66670;DHT22;53568;52.164;4.472;2023-07-29T06:50:44;20.66;76.73
66670;DHT22;53568;52.164;4.472;2023-07-29T06:53:09;20.73;76.47
66670;DHT22;53568;52.164;4.472;2023-07-29T06:55:35;20.79;76.57
66670;DHT22;53568;52.164;4.472;2023-07-29T06:58:00;20.87;76.54
66670;DHT22;53568;52.164;4.472;2023-07-29T07:00:26;20.86;76.44
66670;DHT22;53568;52.164;4.472;2023-07-29T07:02:51;20.92;76.28
66670;DHT22;53568;52.164;4.472;2023-07-29T07:05:17;20.87;76.30
66670;DHT22;53568;52.164;4.472;2023-07-29T07:07:42;20.87;76.25
66670;DHT22;53568;52.164;4.472;2023-07-29T07:10:08;20.92;76.07
66670;DHT22;53568;52.164;4.472;2023-07-29T07:12:34;21.11;74.85
66670;DHT22;53568;52.164;4.472;2023-07-29T07:15:00;21.11;73.89
66670;DHT22;53568;52.164;4.472;2023-07-29T07:17:26;21.07;73.34
66670;DHT22;53568;52.164;4.472;2023-07-29T07:19:51;21.11;73.58
66670;DHT22;53568;52.164;4.472;2023-07-29T07:22:17;21.19;72.90
66670;DHT22;53568;52.164;4.472;2023-07-29T07:24:44;21.23;72.10
66670;DHT22;53568;52.164;4.472;2023-07-29T07:27:09;21.34;71.45
66670;DHT22;53568;52.164;4.472;2023-07-29T07:29:35;21.39;70.27
66670;DHT22;53568;52.164;4.472;2023-07-29T07:32:00;21.39;70.49
66670;DHT22;53568;52.164;4.472;2023-07-29T07:34:26;21.31;70.35
66670;DHT22;53568;52.164;4.472;2023-07-29T07:36:51;21.24;69.97
66670;DHT22;53568;52.164;4.472;2023-07-29T07:39:17;21.20;70.53
66670;DHT22;53568;52.164;4.472;2023-07-29T07:41:43;21.00;70.51
66670;DHT22;53568;52.164;4.472;2023-07-29T07:44:08;21.00;70.69
66670;DHT22;53568;52.164;4.472;2023-07-29T07:46:34;20.89;70.70
66670;DHT22;53568;52.164;4.472;2023-07-29T07:49:00;20.85;71.20
66670;DHT22;53568;52.164;4.472;2023-07-29T07:51:25;20.80;71.53
66670;DHT22;53568;52.164;4.472;2023-07-29T07:53:51;20.83;71.73
66670;DHT22;53568;52.164;4.472;2023-07-29T07:56:16;20.76;72.13
66670;DHT22;53568;52.164;4.472;2023-07-29T07:58:42;20.77;72.33
66670;DHT22;53568;52.164;4.472;2023-07-29T08:01:08;20.80;72.52
66670;DHT22;53568;52.164;4.472;2023-07-29T08:03:35;20.87;72.29
66670;DHT22;53568;52.164;4.472;2023-07-29T08:06:01;20.93;72.13
66670;DHT22;53568;52.164;4.472;2023-07-29T08:08:28;20.90;72.17
66670;DHT22;53568;52.164;4.472;2023-07-29T08:10:54;20.99;71.56
66670;DHT22;53568;52.164;4.472;2023-07-29T08:13:22;21.06;71.79
66670;DHT22;53568;52.164;4.472;2023-07-29T08:15:50;21.16;71.82
66670;DHT22;53568;52.164;4.472;2023-07-29T08:18:16;21.16;71.08
66670;DHT22;53568;52.164;4.472;2023-07-29T08:20:56;21.16;70.70
66670;DHT22;53568;52.164;4.472;2023-07-29T08:23:29;21.07;70.91
66670;DHT22;53568;52.164;4.472;2023-07-29T08:25:57;20.99;71.06
66670;DHT22;53568;52.164;4.472;2023-07-29T08:28:30;20.99;71.10
66670;DHT22;53568;52.164;4.472;2023-07-29T08:30:56;21.02;70.87
66670;DHT22;53568;52.164;4.472;2023-07-29T08:33:22;21.13;70.80
66670;DHT22;53568;52.164;4.472;2023-07-29T08:35:47;21.14;70.85
66670;DHT22;53568;52.164;4.472;2023-07-29T08:38:13;21.27;70.62
66670;DHT22;53568;52.164;4.472;2023-07-29T08:40:47;21.20;70.18
66670;DHT22;53568;52.164;4.472;2023-07-29T08:43:17;21.19;70.14
66670;DHT22;53568;52.164;4.472;2023-07-29T08:45:44;21.39;69.59
66670;DHT22;53568;52.164;4.472;2023-07-29T08:48:11;21.46;69.59
66670;DHT22;53568;52.164;4.472;2023-07-29T08:50:37;21.57;68.87
66670;DHT22;53568;52.164;4.472;2023-07-29T08:53:04;21.60;68.51
66670;DHT22;53568;52.164;4.472;2023-07-29T08:55:31;21.60;68.66
66670;DHT22;53568;52.164;4.472;2023-07-29T08:57:58;21.57;68.25
66670;DHT22;53568;52.164;4.472;2023-07-29T09:00:25;21.55;68.48
66670;DHT22;53568;52.164;4.472;2023-07-29T09:02:51;21.47;68.97
66670;DHT22;53568;52.164;4.472;2023-07-29T09:05:16;21.60;68.80
66670;DHT22;53568;52.164;4.472;2023-07-29T09:07:44;21.67;69.17
66670;DHT22;53568;52.164;4.472;2023-07-29T09:10:13;21.64;69.11
66670;DHT22;53568;52.164;4.472;2023-07-29T09:12:39;21.71;69.12
66670;DHT22;53568;52.164;4.472;2023-07-29T09:15:05;21.57;69.87
66670;DHT22;53568;52.164;4.472;2023-07-29T09:17:32;21.58;70.06
66670;DHT22;53568;52.164;4.472;2023-07-29T09:19:59;21.73;69.72
66670;DHT22;53568;52.164;4.472;2023-07-29T09:22:27;21.64;69.93
66670;DHT22;53568;52.164;4.472;2023-07-29T09:24:53;21.68;69.94
66670;DHT22;53568;52.164;4.472;2023-07-29T09:27:25;21.70;69.94
66670;DHT22;53568;52.164;4.472;2023-07-29T09:29:52;21.67;69.61
66670;DHT22;53568;52.164;4.472;2023-07-29T09:32:19;21.62;69.83
66670;DHT22;53568;52.164;4.472;2023-07-29T09:34:45;21.54;70.09
66670;DHT22;53568;52.164;4.472;2023-07-29T09:37:22;21.54;70.24
66670;DHT22;53568;52.164;4.472;2023-07-29T09:39:49;21.58;70.30
66670;DHT22;53568;52.164;4.472;2023-07-29T09:42:21;21.51;70.70
66670;DHT22;53568;52.164;4.472;2023-07-29T09:44:49;21.55;70.78
66670;DHT22;53568;52.164;4.472;2023-07-29T09:47:23;21.53;70.90
66670;DHT22;53568;52.164;4.472;2023-07-29T09:49:50;21.44;71.17
66670;DHT22;53568;52.164;4.472;2023-07-29T09:52:16;21.44;70.91
66670;DHT22;53568;52.164;4.472;2023-07-29T09:54:43;21.41;71.10
66670;DHT22;53568;52.164;4.472;2023-07-29T09:57:11;21.53;71.20
66670;DHT22;53568;52.164;4.472;2023-07-29T09:59:36;21.50;71.17
66670;DHT22;53568;52.164;4.472;2023-07-29T10:02:02;21.50;71.56
66670;DHT22;53568;52.164;4.472;2023-07-29T10:04:29;21.47;71.65
66670;DHT22;53568;52.164;4.472;2023-07-29T10:06:57;21.47;71.76
66670;DHT22;53568;52.164;4.472;2023-07-29T10:09:25;21.53;72.20
66670;DHT22;53568;52.164;4.472;2023-07-29T10:11:51;21.51;72.46
66670;DHT22;53568;52.164;4.472;2023-07-29T10:14:19;21.51;72.71
66670;DHT22;53568;52.164;4.472;2023-07-29T10:16:46;21.53;72.93
66670;DHT22;53568;52.164;4.472;2023-07-29T10:19:12;21.37;73.76
66670;DHT22;53568;52.164;4.472;2023-07-29T10:21:44;21.46;73.74
66670;DHT22;53568;52.164;4.472;2023-07-29T10:24:15;21.55;73.23
66670;DHT22;53568;52.164;4.472;2023-07-29T10:26:46;21.62;72.98
66670;DHT22;53568;52.164;4.472;2023-07-29T10:29:14;21.70;72.64
66670;DHT22;53568;52.164;4.472;2023-07-29T10:31:44;21.84;72.39
66670;DHT22;53568;52.164;4.472;2023-07-29T10:34:11;21.94;72.01
66670;DHT22;53568;52.164;4.472;2023-07-29T10:36:37;21.91;70.89
66670;DHT22;53568;52.164;4.472;2023-07-29T10:39:03;21.80;71.04
66670;DHT22;53568;52.164;4.472;2023-07-29T10:47:24;22.14;70.64
66670;DHT22;53568;52.164;4.472;2023-07-29T10:49:57;22.24;70.33
66670;DHT22;53568;52.164;4.472;2023-07-29T10:52:40;22.29;69.49
66670;DHT22;53568;52.164;4.472;2023-07-29T10:55:36;22.26;68.84
66670;DHT22;53568;52.164;4.472;2023-07-29T10:58:14;22.11;69.75
66670;DHT22;53568;52.164;4.472;2023-07-29T11:00:43;22.01;69.85
66670;DHT22;53568;52.164;4.472;2023-07-29T11:03:11;22.01;70.16
66670;DHT22;53568;52.164;4.472;2023-07-29T11:05:45;22.04;69.95
66670;DHT22;53568;52.164;4.472;2023-07-29T11:08:28;22.04;69.84
66670;DHT22;53568;52.164;4.472;2023-07-29T11:13:29;21.94;70.96
66670;DHT22;53568;52.164;4.472;2023-07-29T11:15:56;21.97;71.18
66670;DHT22;53568;52.164;4.472;2023-07-29T11:18:27;21.91;71.78
66670;DHT22;53568;52.164;4.472;2023-07-29T11:20:54;21.75;73.10
66670;DHT22;53568;52.164;4.472;2023-07-29T11:23:30;21.61;74.11
66670;DHT22;53568;52.164;4.472;2023-07-29T11:25:57;21.54;74.68
66670;DHT22;53568;52.164;4.472;2023-07-29T11:28:24;21.40;74.83
66670;DHT22;53568;52.164;4.472;2023-07-29T11:30:50;21.27;75.59
66670;DHT22;53568;52.164;4.472;2023-07-29T11:33:21;21.40;75.47
66670;DHT22;53568;52.164;4.472;2023-07-29T11:35:47;21.36;75.59
66670;DHT22;53568;52.164;4.472;2023-07-29T11:38:18;21.30;76.22
66670;DHT22;53568;52.164;4.472;2023-07-29T11:40:54;21.31;76.47
66670;DHT22;53568;52.164;4.472;2023-07-29T11:43:20;21.36;76.69
66670;DHT22;53568;52.164;4.472;2023-07-29T11:45:46;21.47;76.77
66670;DHT22;53568;52.164;4.472;2023-07-29T11:48:11;21.70;76.76
66670;DHT22;53568;52.164;4.472;2023-07-29T11:50:37;21.84;76.22
66670;DHT22;53568;52.164;4.472;2023-07-29T11:53:03;21.92;76.49
66670;DHT22;53568;52.164;4.472;2023-07-29T11:55:28;21.94;76.51
66670;DHT22;53568;52.164;4.472;2023-07-29T11:57:54;21.84;75.44
66670;DHT22;53568;52.164;4.472;2023-07-29T12:00:20;21.78;75.05
66670;DHT22;53568;52.164;4.472;2023-07-29T12:02:48;21.88;74.58
66670;DHT22;53568;52.164;4.472;2023-07-29T12:05:15;21.97;75.14
66670;DHT22;53568;52.164;4.472;2023-07-29T12:07:42;22.12;74.45
66670;DHT22;53568;52.164;4.472;2023-07-29T12:10:09;22.11;74.74
66670;DHT22;53568;52.164;4.472;2023-07-29T12:12:49;22.12;73.33
66670;DHT22;53568;52.164;4.472;2023-07-29T12:15:26;22.12;73.43
66670;DHT22;53568;52.164;4.472;2023-07-29T12:17:58;22.22;72.50
66670;DHT22;53568;52.164;4.472;2023-07-29T12:20:25;22.32;72.66
66670;DHT22;53568;52.164;4.472;2023-07-29T12:22:59;22.49;72.19
66670;DHT22;53568;52.164;4.472;2023-07-29T12:25:27;22.62;71.94
66670;DHT22;53568;52.164;4.472;2023-07-29T12:27:53;22.75;71.42
66670;DHT22;53568;52.164;4.472;2023-07-29T12:30:22;22.72;71.34
66670;DHT22;53568;52.164;4.472;2023-07-29T12:32:48;22.95;71.08
66670;DHT22;53568;52.164;4.472;2023-07-29T12:35:14;22.98;70.39
66670;DHT22;53568;52.164;4.472;2023-07-29T12:37:40;23.20;70.15
66670;DHT22;53568;52.164;4.472;2023-07-29T12:40:29;23.24;69.57
66670;DHT22;53568;52.164;4.472;2023-07-29T12:42:55;23.28;69.15
66670;DHT22;53568;52.164;4.472;2023-07-29T12:45:21;23.39;69.05
66670;DHT22;53568;52.164;4.472;2023-07-29T12:47:49;23.34;68.38
66670;DHT22;53568;52.164;4.472;2023-07-29T12:50:15;23.47;68.04
66670;DHT22;53568;52.164;4.472;2023-07-29T12:52:40;23.54;67.96
66670;DHT22;53568;52.164;4.472;2023-07-29T12:55:06;23.39;66.80
66670;DHT22;53568;52.164;4.472;2023-07-29T12:57:35;23.33;67.48
66670;DHT22;53568;52.164;4.472;2023-07-29T13:00:01;23.30;67.03
66670;DHT22;53568;52.164;4.472;2023-07-29T13:02:26;23.39;66.89
66670;DHT22;53568;52.164;4.472;2023-07-29T13:04:52;23.47;66.41
66670;DHT22;53568;52.164;4.472;2023-07-29T13:07:17;23.50;66.43
66670;DHT22;53568;52.164;4.472;2023-07-29T13:09:43;23.49;66.60
66670;DHT22;53568;52.164;4.472;2023-07-29T13:12:08;23.50;66.42
66670;DHT22;53568;52.164;4.472;2023-07-29T13:14:34;23.42;66.51
66670;DHT22;53568;52.164;4.472;2023-07-29T13:16:59;23.53;66.29
66670;DHT22;53568;52.164;4.472;2023-07-29T13:19:25;23.61;66.15
66670;DHT22;53568;52.164;4.472;2023-07-29T13:21:50;23.75;66.01
66670;DHT22;53568;52.164;4.472;2023-07-29T13:24:16;23.78;64.14
66670;DHT22;53568;52.164;4.472;2023-07-29T13:26:41;23.77;63.33
66670;DHT22;53568;52.164;4.472;2023-07-29T13:29:07;23.64;63.00
66670;DHT22;53568;52.164;4.472;2023-07-29T13:31:33;23.77;63.18
66670;DHT22;53568;52.164;4.472;2023-07-29T13:33:58;23.85;63.38
66670;DHT22;53568;52.164;4.472;2023-07-29T13:36:24;23.96;63.19
66670;DHT22;53568;52.164;4.472;2023-07-29T13:38:49;24.08;62.87
66670;DHT22;53568;52.164;4.472;2023-07-29T13:41:15;23.97;62.60
66670;DHT22;53568;52.164;4.472;2023-07-29T13:43:40;23.91;63.08
66670;DHT22;53568;52.164;4.472;2023-07-29T13:46:06;23.90;62.71
66670;DHT22;53568;52.164;4.472;2023-07-29T13:48:31;23.82;63.54
66670;DHT22;53568;52.164;4.472;2023-07-29T13:50:58;23.70;63.66
66670;DHT22;53568;52.164;4.472;2023-07-29T13:53:23;23.85;63.30
66670;DHT22;53568;52.164;4.472;2023-07-29T13:55:49;23.70;63.31
66670;DHT22;53568;52.164;4.472;2023-07-29T13:58:15;23.81;63.17
66670;DHT22;53568;52.164;4.472;2023-07-29T14:00:40;23.68;63.02
66670;DHT22;53568;52.164;4.472;2023-07-29T14:03:06;23.74;61.94
66670;DHT22;53568;52.164;4.472;2023-07-29T14:05:31;23.87;61.51
66670;DHT22;53568;52.164;4.472;2023-07-29T14:07:57;23.87;61.19
66670;DHT22;53568;52.164;4.472;2023-07-29T14:10:22;23.94;58.24
66670;DHT22;53568;52.164;4.472;2023-07-29T14:12:48;23.90;58.35
66670;DHT22;53568;52.164;4.472;2023-07-29T14:15:13;23.68;58.50
66670;DHT22;53568;52.164;4.472;2023-07-29T14:17:39;23.66;58.09
66670;DHT22;53568;52.164;4.472;2023-07-29T14:20:05;23.53;58.14
66670;DHT22;53568;52.164;4.472;2023-07-29T14:22:30;23.54;58.44
66670;DHT22;53568;52.164;4.472;2023-07-29T14:24:56;23.51;59.08
66670;DHT22;53568;52.164;4.472;2023-07-29T14:27:21;23.60;59.36
66670;DHT22;53568;52.164;4.472;2023-07-29T14:29:47;23.56;59.35
66670;DHT22;53568;52.164;4.472;2023-07-29T14:32:12;23.56;59.23
66670;DHT22;53568;52.164;4.472;2023-07-29T14:34:38;23.63;59.13
66670;DHT22;53568;52.164;4.472;2023-07-29T14:37:04;23.68;59.97
66670;DHT22;53568;52.164;4.472;2023-07-29T14:39:30;23.58;60.67
66670;DHT22;53568;52.164;4.472;2023-07-29T14:41:55;23.74;60.25
66670;DHT22;53568;52.164;4.472;2023-07-29T14:44:21;23.80;60.31
66670;DHT22;53568;52.164;4.472;2023-07-29T14:46:46;23.77;60.32
66670;DHT22;53568;52.164;4.472;2023-07-29T14:49:12;23.66;59.95
66670;DHT22;53568;52.164;4.472;2023-07-29T14:51:37;23.60;59.73
66670;DHT22;53568;52.164;4.472;2023-07-29T14:54:03;23.64;59.66
66670;DHT22;53568;52.164;4.472;2023-07-29T14:56:28;23.58;60.26
66670;DHT22;53568;52.164;4.472;2023-07-29T14:58:54;23.47;60.51
66670;DHT22;53568;52.164;4.472;2023-07-29T15:01:20;23.49;60.95
66670;DHT22;53568;52.164;4.472;2023-07-29T15:03:45;23.39;61.30
66670;DHT22;53568;52.164;4.472;2023-07-29T15:06:10;23.24;61.63
66670;DHT22;53568;52.164;4.472;2023-07-29T15:08:36;23.26;61.83
66670;DHT22;53568;52.164;4.472;2023-07-29T15:11:02;23.23;62.54
66670;DHT22;53568;52.164;4.472;2023-07-29T15:13:27;23.23;62.87
66670;DHT22;53568;52.164;4.472;2023-07-29T15:15:52;23.26;63.01
66670;DHT22;53568;52.164;4.472;2023-07-29T15:18:18;23.28;63.41
66670;DHT22;53568;52.164;4.472;2023-07-29T15:20:44;23.28;63.15
66670;DHT22;53568;52.164;4.472;2023-07-29T15:23:09;23.36;62.96
66670;DHT22;53568;52.164;4.472;2023-07-29T15:25:35;23.28;62.86
66670;DHT22;53568;52.164;4.472;2023-07-29T15:28:00;23.23;63.42
66670;DHT22;53568;52.164;4.472;2023-07-29T15:30:27;23.14;61.63
66670;DHT22;53568;52.164;4.472;2023-07-29T15:32:53;23.07;62.20
66670;DHT22;53568;52.164;4.472;2023-07-29T15:35:21;23.13;62.31
66670;DHT22;53568;52.164;4.472;2023-07-29T15:37:46;23.28;61.34
66670;DHT22;53568;52.164;4.472;2023-07-29T15:40:12;23.28;61.37
66670;DHT22;53568;52.164;4.472;2023-07-29T15:42:37;23.24;61.56